createdAt,value
2023-04-18T00:01:40.252Z,9.40
2023-04-18T00:03:45.872Z,9.50
2023-04-18T00:05:49.969Z,8.60
2023-04-18T00:07:53.465Z,7.20
2023-04-18T00:09:58.484Z,9.60
2023-04-18T00:12:03.124Z,7.80
2023-04-18T00:14:06.965Z,11.80
2023-04-18T00:16:10.035Z,11.40
2023-04-18T00:18:17.236Z,6.80
2023-04-18T00:20:20.317Z,9.00
2023-04-18T00:22:23.533Z,10.90
2023-04-18T00:24:26.408Z,12.30
2023-04-18T00:26:29.199Z,10.50
2023-04-18T00:28:32.776Z,10.70
2023-04-18T00:30:35.710Z,10.60
2023-04-18T00:32:40.987Z,12.60
2023-04-18T00:34:44.632Z,11.00
2023-04-18T00:36:49.279Z,11.20
2023-04-18T00:38:52.527Z,10.60
2023-04-18T00:40:55.611Z,10.50
2023-04-18T00:42:58.798Z,11.30
2023-04-18T00:45:02.127Z,9.70
2023-04-18T00:47:04.868Z,11.90
2023-04-18T00:49:08.456Z,10.60
2023-04-18T00:51:12.373Z,12.20
2023-04-18T00:53:15.715Z,10.10
2023-04-18T00:55:20.679Z,10.70
2023-04-18T00:57:24.795Z,10.00
2023-04-18T00:59:27.767Z,10.10
2023-04-18T01:01:30.990Z,11.50
2023-04-18T01:03:35.500Z,11.00
2023-04-18T01:05:40.392Z,8.80
2023-04-18T01:07:47.735Z,11.30
2023-04-18T01:09:53.563Z,11.20
2023-04-18T01:14:07.277Z,8.60
2023-04-18T01:16:13.339Z,10.70
2023-04-18T01:18:18.576Z,10.70
2023-04-18T01:20:24.629Z,10.40
2023-04-18T01:22:33.976Z,9.60
2023-04-18T01:24:38.360Z,9.70
2023-04-18T01:26:45.242Z,9.30
2023-04-18T01:28:48.712Z,10.10
2023-04-18T01:30:57.723Z,8.70
2023-04-18T01:33:04.997Z,7.90
2023-04-18T01:35:10.715Z,9.40
2023-04-18T01:37:14.899Z,9.70
2023-04-18T01:39:19.688Z,10.60
2023-04-18T01:41:23.861Z,9.30
2023-04-18T01:43:28.135Z,9.90
2023-04-18T01:45:32.262Z,9.30
2023-04-18T01:47:37.667Z,8.90
2023-04-18T01:49:43.557Z,10.20
2023-04-18T01:51:51.702Z,9.30
2023-04-18T01:53:58.441Z,9.20
2023-04-18T01:56:04.984Z,9.20
2023-04-18T01:58:08.604Z,10.10
2023-04-18T02:00:15.417Z,8.00
2023-04-18T02:02:26.688Z,8.40
2023-04-18T02:04:38.382Z,8.90
2023-04-18T02:06:42.007Z,7.30
2023-04-18T02:08:45.092Z,7.50
2023-04-18T02:10:50.960Z,10.00
2023-04-18T02:12:59.165Z,9.20
2023-04-18T02:15:07.213Z,9.10
2023-04-18T02:17:13.049Z,10.40
2023-04-18T02:21:42.849Z,7.70
2023-04-18T02:23:54.927Z,9.20
2023-04-18T02:26:01.483Z,8.50
2023-04-18T02:28:08.055Z,8.50
2023-04-18T02:30:12.293Z,9.10
2023-04-18T02:32:21.136Z,7.50
2023-04-18T02:34:26.748Z,9.60
2023-04-18T02:36:31.189Z,10.40
2023-04-18T02:38:36.850Z,10.70
2023-04-18T02:40:41.723Z,11.30
2023-04-18T02:42:46.567Z,9.20
2023-04-18T02:44:52.311Z,9.30
2023-04-18T02:46:58.424Z,9.10
2023-04-18T02:49:03.075Z,9.40
2023-04-18T02:51:07.939Z,8.60
2023-04-18T02:53:15.066Z,9.20
2023-04-18T02:55:31.483Z,8.80
2023-04-18T02:57:36.303Z,7.90
2023-04-18T03:00:03.655Z,6.70
2023-04-18T03:02:44.956Z,9.90
2023-04-18T03:05:28.959Z,9.80
2023-04-18T03:07:36.890Z,8.40
2023-04-18T03:09:41.390Z,7.70
2023-04-18T03:12:02.241Z,9.10
2023-04-18T03:14:10.918Z,8.40
2023-04-18T03:16:44.612Z,9.90
2023-04-18T03:18:50.162Z,10.70
2023-04-18T03:21:09.378Z,10.20
2023-04-18T03:23:14.030Z,8.00
2023-04-18T03:25:22.675Z,9.10
2023-04-18T03:27:31.812Z,8.90
2023-04-18T03:29:36.491Z,9.50
2023-04-18T03:31:45.177Z,9.30
2023-04-18T03:33:48.417Z,9.60
2023-04-18T03:35:52.482Z,9.60
2023-04-18T03:37:56.321Z,9.50
2023-04-18T03:40:28.296Z,8.40
2023-04-18T03:42:44.779Z,7.60
2023-04-18T03:44:51.990Z,8.80
2023-04-18T03:46:59.072Z,9.10
2023-04-18T03:49:12.626Z,8.70
2023-04-18T03:51:28.333Z,8.50
2023-04-18T03:53:42.295Z,8.90
2023-04-18T03:55:52.169Z,9.50
2023-04-18T03:58:07.702Z,8.40
2023-04-18T04:00:13.837Z,8.30
2023-04-18T04:02:23.903Z,9.70
2023-04-18T04:04:28.000Z,7.50
2023-04-18T04:06:33.987Z,9.10
2023-04-18T04:08:52.534Z,9.40
2023-04-18T04:11:15.583Z,7.80
2023-04-18T04:13:29.413Z,7.90
2023-04-18T04:15:34.146Z,9.20
2023-04-18T04:17:46.500Z,7.60
2023-04-18T04:19:56.281Z,7.50
2023-04-18T04:22:27.696Z,9.20
2023-04-18T04:24:35.105Z,8.10
2023-04-18T04:26:40.653Z,7.90
2023-04-18T04:28:53.200Z,7.80
2023-04-18T04:31:01.100Z,7.70
2023-04-18T04:33:09.104Z,7.10
2023-04-18T04:37:30.058Z,8.30
2023-04-18T04:39:46.245Z,6.60
2023-04-18T04:42:26.200Z,8.10
2023-04-18T04:44:35.627Z,8.20
2023-04-18T04:46:40.581Z,7.40
2023-04-18T04:48:54.849Z,8.20
2023-04-18T04:51:00.373Z,7.20
2023-04-18T04:53:08.302Z,9.40
2023-04-18T04:55:13.926Z,7.20
2023-04-18T04:57:21.582Z,6.00
2023-04-18T04:59:24.626Z,8.20
2023-04-18T05:01:27.919Z,6.70
2023-04-18T05:03:31.345Z,7.20
2023-04-18T05:05:50.798Z,7.80
2023-04-18T05:07:54.374Z,6.10
2023-04-18T05:09:59.378Z,7.30
2023-04-18T05:12:06.530Z,8.20
2023-04-18T05:14:09.462Z,9.80
2023-04-18T05:16:13.330Z,5.90
2023-04-18T05:18:24.900Z,7.90
2023-04-18T05:20:31.641Z,4.10
2023-04-18T05:22:41.350Z,4.80
2023-04-18T05:24:44.830Z,6.80
2023-04-18T05:26:49.206Z,7.80
2023-04-18T05:28:54.225Z,6.90
2023-04-18T05:31:16.949Z,8.00
2023-04-18T05:33:20.898Z,10.00
2023-04-18T05:35:23.691Z,9.40
2023-04-18T05:37:26.769Z,8.20
2023-04-18T05:39:29.453Z,6.30
2023-04-18T05:41:32.559Z,8.60
2023-04-18T05:43:35.344Z,7.20
2023-04-18T05:45:38.715Z,6.70
2023-04-18T05:47:41.548Z,7.00
2023-04-18T05:49:45.045Z,4.50
2023-04-18T05:51:50.349Z,7.70
2023-04-18T05:53:53.104Z,7.50
2023-04-18T05:55:59.337Z,5.40
2023-04-18T05:58:02.431Z,3.30
2023-04-18T06:00:08.484Z,4.50
2023-04-18T06:02:32.538Z,6.00
2023-04-18T06:04:48.485Z,6.80
2023-04-18T06:06:55.089Z,8.00
2023-04-18T06:08:59.330Z,7.50
2023-04-18T06:11:09.862Z,8.60
2023-04-18T06:13:19.558Z,8.20
2023-04-18T06:15:29.894Z,7.70
2023-04-18T06:17:37.552Z,5.10
2023-04-18T06:19:43.316Z,4.40
2023-04-18T06:21:49.956Z,8.60
2023-04-18T06:23:58.202Z,6.80
2023-04-18T06:26:07.018Z,7.30
2023-04-18T06:28:17.240Z,6.30
2023-04-18T06:30:22.254Z,5.20
2023-04-18T06:32:26.954Z,7.30
2023-04-18T06:34:35.515Z,8.10
2023-04-18T06:36:40.780Z,8.80
2023-04-18T06:38:44.907Z,5.60
2023-04-18T06:40:47.626Z,8.60
2023-04-18T06:42:55.028Z,9.70
2023-04-18T06:44:58.007Z,8.70
2023-04-18T06:47:03.142Z,8.70
2023-04-18T06:49:06.197Z,8.50
2023-04-18T06:51:11.077Z,7.30
2023-04-18T06:53:16.098Z,7.30
2023-04-18T06:55:18.882Z,8.40
2023-04-18T06:57:22.053Z,7.20
2023-04-18T06:59:25.411Z,8.80
2023-04-18T07:01:33.914Z,7.90
2023-04-18T07:03:36.956Z,6.40
2023-04-18T07:05:41.003Z,8.10
2023-04-18T07:07:46.610Z,10.90
2023-04-18T07:10:02.806Z,10.80
2023-04-18T07:12:07.330Z,10.70
2023-04-18T07:14:12.259Z,10.70
2023-04-18T07:16:16.677Z,9.10
2023-04-18T07:18:34.140Z,6.70
2023-04-18T07:20:44.057Z,9.10
2023-04-18T07:22:56.970Z,9.40
2023-04-18T07:25:00.493Z,6.90
2023-04-18T07:27:19.275Z,10.70
2023-04-18T07:29:25.004Z,9.80
2023-04-18T07:31:28.951Z,7.60
2023-04-18T07:33:39.515Z,7.80
2023-04-18T07:35:45.943Z,6.80
2023-04-18T07:37:48.937Z,8.00
2023-04-18T07:39:52.568Z,9.70
2023-04-18T07:42:02.095Z,10.80
2023-04-18T07:44:08.337Z,10.20
2023-04-18T07:46:16.417Z,9.00
2023-04-18T07:48:23.482Z,9.90
2023-04-18T07:50:30.598Z,7.70
2023-04-18T07:52:34.178Z,11.00
2023-04-18T07:54:38.125Z,9.70
2023-04-18T07:56:41.206Z,10.40
2023-04-18T07:58:45.664Z,10.90
2023-04-18T08:00:49.309Z,10.20
2023-04-18T08:02:53.105Z,11.90
2023-04-18T08:04:58.762Z,10.10
2023-04-18T08:07:02.127Z,9.50
2023-04-18T08:09:09.508Z,9.70
2023-04-18T08:11:13.319Z,12.60
2023-04-18T08:13:18.248Z,7.40
2023-04-18T08:15:43.545Z,11.70
2023-04-18T08:17:49.194Z,12.60
2023-04-18T08:19:54.659Z,9.80
2023-04-18T08:22:11.327Z,11.80
2023-04-18T08:24:41.699Z,7.50
2023-04-18T08:26:52.024Z,12.80
2023-04-18T08:28:57.797Z,13.60
2023-04-18T08:31:00.853Z,13.20
2023-04-18T08:33:09.979Z,13.40
2023-04-18T08:35:14.010Z,13.70
2023-04-18T08:37:19.448Z,15.30
2023-04-18T08:39:27.628Z,18.30
2023-04-18T08:41:36.953Z,16.00
2023-04-18T08:43:42.734Z,15.20
2023-04-18T08:45:59.247Z,16.20
2023-04-18T08:48:06.244Z,14.00
2023-04-18T08:50:12.788Z,11.30
2023-04-18T08:52:27.436Z,10.30
2023-04-18T08:54:34.002Z,9.10
2023-04-18T08:56:39.212Z,11.80
2023-04-18T08:58:47.021Z,11.00
2023-04-18T09:00:52.094Z,11.10
2023-04-18T09:02:57.815Z,12.30
2023-04-18T09:05:26.121Z,12.90
2023-04-18T09:07:36.131Z,10.70
2023-04-18T09:09:49.143Z,11.00
2023-04-18T09:12:12.069Z,10.60
2023-04-18T09:14:26.449Z,13.10
2023-04-18T09:16:47.055Z,9.90
2023-04-18T09:19:10.710Z,13.80
2023-04-18T09:21:23.801Z,8.50
2023-04-18T09:23:32.710Z,9.50
2023-04-18T09:25:50.990Z,12.90
2023-04-18T09:28:01.509Z,14.90
2023-04-18T09:30:33.707Z,11.40
2023-04-18T09:32:41.173Z,16.20
2023-04-18T09:34:47.365Z,14.10
2023-04-18T09:37:08.051Z,14.50
2023-04-18T09:39:27.458Z,11.70
2023-04-18T09:41:31.402Z,11.90
2023-04-18T09:43:40.854Z,9.30
2023-04-18T09:45:44.598Z,11.30
2023-04-18T09:47:49.647Z,10.40
2023-04-18T09:49:54.507Z,10.90
2023-04-18T09:52:00.372Z,6.30
2023-04-18T09:56:35.496Z,10.00
2023-04-18T09:58:42.567Z,6.20
2023-04-18T10:00:50.335Z,7.30
2023-04-18T10:03:18.712Z,11.20
2023-04-18T10:05:25.465Z,11.90
2023-04-18T10:07:34.941Z,12.10
2023-04-18T10:09:41.045Z,12.90
2023-04-18T10:11:46.003Z,13.10
2023-04-18T10:13:53.824Z,12.10
2023-04-18T10:16:03.733Z,13.90
2023-04-18T10:18:18.658Z,12.60
2023-04-18T10:20:25.253Z,7.90
2023-04-18T10:22:34.070Z,11.80
2023-04-18T10:24:53.871Z,5.30
2023-04-18T10:26:58.544Z,8.80
2023-04-18T10:29:09.710Z,13.30
2023-04-18T10:31:25.800Z,10.00
2023-04-18T10:33:41.007Z,11.60
2023-04-18T10:36:02.964Z,7.40
2023-04-18T10:38:16.646Z,12.70
2023-04-18T10:40:36.757Z,10.30
2023-04-18T10:42:47.675Z,10.50
2023-04-18T10:45:40.134Z,10.50
2023-04-18T10:47:46.978Z,12.60
2023-04-18T10:49:56.300Z,10.20
2023-04-18T10:52:01.870Z,9.80
2023-04-18T10:54:09.951Z,10.30
2023-04-18T10:56:17.203Z,6.30
2023-04-18T10:58:22.439Z,7.60
2023-04-18T11:00:43.876Z,6.60
2023-04-18T11:03:05.609Z,8.20
2023-04-18T11:05:11.548Z,10.80
2023-04-18T11:07:17.886Z,8.40
2023-04-18T11:09:21.360Z,11.90
2023-04-18T11:12:10.641Z,10.40
2023-04-18T11:14:23.461Z,10.20
2023-04-18T11:16:38.734Z,11.60
2023-04-18T11:18:42.610Z,9.80
2023-04-18T11:20:52.215Z,10.70
2023-04-18T11:22:58.728Z,10.60
2023-04-18T11:25:08.076Z,11.40
2023-04-18T11:27:14.729Z,10.50
2023-04-18T11:29:18.211Z,12.70
2023-04-18T11:31:25.385Z,12.30
2023-04-18T11:33:30.481Z,8.00
2023-04-18T11:35:44.933Z,9.90
2023-04-18T11:38:04.138Z,11.00
2023-04-18T11:40:13.532Z,11.90
2023-04-18T11:42:18.307Z,9.60
2023-04-18T11:44:26.776Z,9.30
2023-04-18T11:49:30.908Z,8.90
2023-04-18T11:51:48.320Z,6.00
2023-04-18T11:53:52.653Z,9.60
2023-04-18T11:56:22.546Z,10.70
2023-04-18T11:58:42.265Z,10.00
2023-04-18T12:00:46.840Z,9.90
2023-04-18T12:02:56.723Z,10.00
2023-04-18T12:05:30.998Z,7.80
2023-04-18T12:07:37.709Z,6.20
2023-04-18T12:09:43.929Z,8.30
2023-04-18T12:12:19.621Z,9.50
2023-04-18T12:14:38.817Z,7.30
2023-04-18T12:16:44.365Z,9.50
2023-04-18T12:18:48.355Z,9.50
2023-04-18T12:20:54.379Z,11.10
2023-04-18T12:23:00.917Z,7.90
2023-04-18T12:25:38.877Z,9.40
2023-04-18T12:28:06.883Z,8.50
2023-04-18T12:30:10.587Z,5.40
2023-04-18T12:32:13.561Z,8.40
2023-04-18T12:34:19.289Z,9.40
2023-04-18T12:36:29.243Z,8.20
2023-04-18T12:38:44.839Z,9.20
2023-04-18T12:40:54.929Z,10.50
2023-04-18T12:42:57.991Z,9.50
2023-04-18T12:45:03.811Z,7.90
2023-04-18T12:47:08.657Z,4.90
2023-04-18T12:49:16.713Z,10.10
2023-04-18T12:51:25.940Z,8.50
2023-04-18T12:53:37.904Z,9.80
2023-04-18T12:57:47.659Z,8.20
2023-04-18T12:59:51.180Z,7.00
2023-04-18T13:01:57.464Z,11.50
2023-04-18T13:04:12.289Z,9.10
2023-04-18T13:06:17.364Z,9.00
2023-04-18T13:08:23.735Z,7.70
2023-04-18T13:12:43.308Z,10.90
2023-04-18T13:14:55.960Z,4.50
2023-04-18T13:17:01.543Z,8.20
2023-04-18T13:19:10.260Z,11.90
2023-04-18T13:21:25.254Z,12.20
2023-04-18T13:23:37.645Z,10.10
2023-04-18T13:25:44.397Z,11.70
2023-04-18T13:27:53.087Z,10.10
2023-04-18T13:30:04.979Z,12.10
2023-04-18T13:32:18.321Z,9.60
2023-04-18T13:34:26.481Z,13.20
2023-04-18T13:36:30.011Z,11.00
2023-04-18T13:38:34.749Z,12.00
2023-04-18T13:40:40.712Z,11.70
2023-04-18T13:42:53.320Z,11.90
2023-04-18T13:45:05.877Z,14.60
2023-04-18T13:47:15.950Z,13.60
2023-04-18T13:49:27.686Z,12.20
2023-04-18T13:51:52.933Z,15.40
2023-04-18T13:53:57.062Z,12.90
2023-04-18T13:56:01.867Z,14.50
2023-04-18T13:58:11.817Z,12.20
2023-04-18T14:00:17.275Z,15.10
2023-04-18T14:02:20.721Z,9.80
2023-04-18T14:04:32.901Z,13.50
2023-04-18T14:06:53.358Z,18.10
2023-04-18T14:09:02.332Z,12.40
2023-04-18T14:11:07.389Z,15.70
2023-04-18T14:13:12.849Z,16.60
2023-04-18T14:15:19.951Z,9.10
2023-04-18T14:17:22.982Z,9.90
2023-04-18T14:19:27.013Z,14.60
2023-04-18T14:21:39.277Z,13.60
2023-04-18T14:24:00.566Z,10.70
2023-04-18T14:26:05.912Z,15.80
2023-04-18T14:28:11.883Z,12.40
2023-04-18T14:30:20.946Z,15.70
2023-04-18T14:32:27.241Z,10.80
2023-04-18T14:34:38.226Z,10.20
2023-04-18T14:36:55.408Z,15.80
2023-04-18T14:39:03.627Z,11.60
2023-04-18T14:41:07.401Z,16.50
2023-04-18T14:43:10.680Z,13.40
2023-04-18T14:45:16.517Z,15.30
2023-04-18T14:47:19.945Z,14.20
2023-04-18T14:49:23.401Z,15.70
2023-04-18T14:51:26.519Z,18.60
2023-04-18T14:53:31.117Z,10.50
2023-04-18T14:55:34.730Z,12.10
2023-04-18T14:58:00.105Z,15.50
2023-04-18T15:00:11.005Z,8.60
2023-04-18T15:02:25.037Z,15.20
2023-04-18T15:04:29.048Z,13.20
2023-04-18T15:06:34.847Z,12.80
2023-04-18T15:08:37.862Z,13.60
2023-04-18T15:10:56.921Z,16.10
2023-04-18T15:13:00.221Z,15.90
2023-04-18T15:15:07.376Z,11.80
2023-04-18T15:17:22.049Z,14.20
2023-04-18T15:19:35.363Z,11.60
2023-04-18T15:21:40.826Z,13.50
2023-04-18T15:23:45.452Z,14.20
2023-04-18T15:25:50.388Z,10.40
2023-04-18T15:27:54.893Z,16.10
2023-04-18T15:30:02.886Z,12.90
2023-04-18T15:32:28.865Z,15.60
2023-04-18T15:34:32.734Z,15.40
2023-04-18T15:36:38.151Z,17.00
2023-04-18T15:38:45.460Z,9.90
2023-04-18T15:40:51.991Z,16.30
2023-04-18T15:43:00.759Z,17.20
2023-04-18T15:45:24.634Z,17.30
2023-04-18T15:47:42.972Z,16.30
2023-04-18T15:49:50.464Z,15.40
2023-04-18T15:51:54.949Z,16.20
2023-04-18T15:54:07.996Z,16.30
2023-04-18T15:56:17.912Z,13.20
2023-04-18T15:58:32.903Z,9.30
2023-04-18T16:00:42.832Z,14.30
2023-04-18T16:02:50.878Z,10.70
2023-04-18T16:04:56.169Z,11.70
2023-04-18T16:07:49.138Z,15.00
2023-04-18T16:09:55.285Z,13.60
2023-04-18T16:11:58.445Z,12.40
2023-04-18T16:14:13.936Z,14.80
2023-04-18T16:16:17.884Z,11.70
2023-04-18T16:18:23.316Z,15.60
2023-04-18T16:20:30.221Z,16.10
2023-04-18T16:22:41.443Z,14.40
2023-04-18T16:25:04.364Z,13.80
2023-04-18T16:27:36.078Z,12.90
2023-04-18T16:29:41.309Z,13.40
2023-04-18T16:31:48.116Z,12.20
2023-04-18T16:34:16.987Z,11.10
2023-04-18T16:36:24.006Z,13.80
2023-04-18T16:38:33.844Z,13.40
2023-04-18T16:40:41.330Z,12.40
2023-04-18T16:42:58.265Z,12.30
2023-04-18T16:45:26.033Z,12.20
2023-04-18T16:47:29.910Z,12.20
2023-04-18T16:49:36.935Z,14.70
2023-04-18T16:51:42.374Z,15.20
2023-04-18T16:53:47.104Z,14.30
2023-04-18T16:55:56.463Z,13.20
2023-04-18T16:57:59.524Z,12.80
2023-04-18T17:02:36.188Z,11.90
2023-04-18T17:05:06.566Z,15.20
2023-04-18T17:07:11.410Z,12.60
2023-04-18T17:09:18.180Z,12.80
2023-04-18T17:11:28.473Z,12.80
2023-04-18T17:13:32.353Z,13.50
2023-04-18T17:15:37.109Z,13.20
2023-04-18T17:17:46.952Z,13.10
2023-04-18T17:20:01.575Z,11.40
2023-04-18T17:22:07.992Z,9.80
2023-04-18T17:24:16.068Z,11.70
2023-04-18T17:26:28.855Z,10.50
2023-04-18T17:28:36.331Z,10.80
2023-04-18T17:30:42.648Z,12.00
2023-04-18T17:33:00.873Z,9.50
2023-04-18T17:35:35.189Z,9.00
2023-04-18T17:37:42.160Z,9.30
2023-04-18T17:39:59.103Z,11.40
2023-04-18T17:42:05.538Z,10.80
2023-04-18T17:44:11.176Z,11.50
2023-04-18T17:46:26.553Z,9.70
2023-04-18T17:48:35.062Z,8.40
2023-04-18T17:50:54.929Z,9.40
2023-04-18T17:52:58.562Z,10.70
2023-04-18T17:55:07.426Z,8.60
2023-04-18T17:57:14.533Z,11.20
2023-04-18T17:59:18.539Z,9.10
2023-04-18T18:01:48.810Z,10.80
2023-04-18T18:03:58.365Z,11.70
2023-04-18T18:06:08.422Z,10.70
2023-04-18T18:10:25.657Z,11.00
2023-04-18T18:12:32.590Z,9.40
2023-04-18T18:14:40.414Z,11.10
2023-04-18T18:16:50.541Z,12.60
2023-04-18T18:21:30.067Z,10.40
2023-04-18T18:23:35.991Z,11.40
2023-04-18T18:25:41.565Z,9.30
2023-04-18T18:27:53.327Z,8.90
2023-04-18T18:29:57.038Z,11.90
2023-04-18T18:32:04.007Z,11.50
2023-04-18T18:34:17.638Z,11.90
2023-04-18T18:36:54.371Z,11.10
2023-04-18T18:38:59.192Z,10.10
2023-04-18T18:41:05.286Z,10.60
2023-04-18T18:43:08.139Z,10.80
2023-04-18T18:45:15.553Z,11.00
2023-04-18T18:47:19.411Z,10.40
2023-04-18T18:49:47.886Z,11.70
2023-04-18T18:51:54.609Z,11.60
2023-04-18T18:53:57.411Z,11.00
2023-04-18T18:56:01.184Z,13.10
2023-04-18T18:58:07.829Z,12.60
2023-04-18T19:00:23.620Z,12.00
2023-04-18T19:02:34.551Z,12.80
2023-04-18T19:04:41.618Z,9.50
2023-04-18T19:06:57.226Z,11.10
2023-04-18T19:09:11.895Z,11.80
2023-04-18T19:11:16.225Z,11.30
2023-04-18T19:13:25.397Z,10.00
2023-04-18T19:15:31.368Z,8.60
2023-04-18T19:17:36.837Z,10.90
2023-04-18T19:19:49.729Z,10.20
2023-04-18T19:21:54.955Z,9.70
2023-04-18T19:24:03.990Z,10.90
2023-04-18T19:26:18.042Z,11.20
2023-04-18T19:28:27.755Z,8.50
2023-04-18T19:30:33.219Z,8.80
2023-04-18T19:32:39.322Z,8.30
2023-04-18T19:34:44.610Z,10.00
2023-04-18T19:37:05.215Z,8.60
2023-04-18T19:39:12.103Z,8.30
2023-04-18T19:41:15.516Z,8.80
2023-04-18T19:43:34.294Z,9.30
2023-04-18T19:45:41.274Z,9.30
2023-04-18T19:47:50.181Z,9.70
2023-04-18T19:50:00.443Z,9.80
2023-04-18T19:52:06.490Z,9.50
2023-04-18T19:54:20.292Z,9.40
2023-04-18T19:56:25.702Z,8.30
2023-04-18T19:58:45.884Z,9.00
2023-04-18T20:01:05.514Z,8.40
2023-04-18T20:03:13.454Z,9.40
2023-04-18T20:05:18.651Z,8.80
2023-04-18T20:07:26.014Z,7.90
2023-04-18T20:09:31.047Z,7.10
2023-04-18T20:11:35.971Z,6.10
2023-04-18T20:13:41.561Z,8.50
2023-04-18T20:15:54.370Z,8.10
2023-04-18T20:17:57.560Z,8.80
2023-04-18T20:20:06.571Z,8.40
2023-04-18T20:22:17.412Z,8.30
2023-04-18T20:24:46.461Z,8.90
2023-04-18T20:26:52.339Z,6.70
2023-04-18T20:28:59.265Z,8.90
2023-04-18T20:31:08.416Z,8.70
2023-04-18T20:33:12.760Z,8.20
2023-04-18T20:35:25.306Z,8.20
2023-04-18T20:37:37.331Z,6.00
2023-04-18T20:40:13.251Z,9.70
2023-04-18T20:42:17.761Z,8.60
2023-04-18T20:44:22.490Z,9.10
2023-04-18T20:46:28.392Z,8.70
2023-04-18T20:48:35.458Z,8.20
2023-04-18T20:50:41.173Z,7.80
2023-04-18T20:52:46.673Z,8.50
2023-04-18T20:54:50.852Z,8.90
2023-04-18T20:57:02.337Z,6.40
2023-04-18T20:59:06.621Z,8.80
2023-04-18T21:01:38.486Z,8.70
2023-04-18T21:03:43.738Z,9.10
2023-04-18T21:05:55.568Z,8.70
2023-04-18T21:08:02.814Z,8.00
2023-04-18T21:10:14.468Z,8.00
2023-04-18T21:12:18.850Z,8.40
2023-04-18T21:14:28.212Z,8.30
2023-04-18T21:16:42.536Z,8.30
2023-04-18T21:18:49.431Z,8.90
2023-04-18T21:20:57.292Z,10.00
2023-04-18T21:23:11.968Z,7.70
2023-04-18T21:25:22.354Z,8.40
2023-04-18T21:27:50.324Z,10.80
2023-04-18T21:30:19.681Z,9.70
2023-04-18T21:32:24.774Z,9.00
2023-04-18T21:34:42.848Z,6.80
2023-04-18T21:36:46.410Z,7.70
2023-04-18T21:38:57.730Z,7.90
2023-04-18T21:43:26.483Z,6.70
2023-04-18T21:45:39.915Z,8.40
2023-04-18T21:47:47.105Z,8.90
2023-04-18T21:52:03.774Z,7.50
2023-04-18T21:54:09.286Z,8.60
2023-04-18T21:56:14.277Z,7.70
2023-04-18T21:58:41.499Z,9.90
2023-04-18T22:00:44.537Z,10.80
2023-04-18T22:02:50.638Z,8.50
2023-04-18T22:04:57.618Z,9.20
2023-04-18T22:07:02.652Z,9.40
2023-04-18T22:11:39.842Z,10.10
2023-04-18T22:13:45.794Z,10.10
2023-04-18T22:18:23.735Z,12.40
2023-04-18T22:20:32.291Z,10.10
2023-04-18T22:22:44.516Z,11.10
2023-04-18T22:24:48.638Z,11.60
2023-04-18T22:26:53.760Z,10.60
2023-04-18T22:29:46.981Z,10.50
2023-04-18T22:31:34.367Z,11.00
2023-04-18T22:33:38.812Z,11.30
2023-04-18T22:35:43.475Z,11.30
2023-04-18T22:37:48.364Z,9.80
2023-04-18T22:39:55.034Z,10.80
2023-04-18T22:42:01.185Z,10.40
2023-04-18T22:44:06.690Z,10.70
2023-04-18T22:46:12.754Z,13.10
2023-04-18T22:48:19.126Z,10.70
2023-04-18T22:50:24.699Z,12.40
2023-04-18T22:52:28.026Z,11.60
2023-04-18T22:54:56.506Z,13.10
2023-04-18T22:57:06.556Z,11.70
2023-04-18T22:59:14.445Z,12.00
2023-04-18T23:01:19.628Z,12.10
2023-04-18T23:03:39.896Z,11.90
2023-04-18T23:05:43.743Z,14.50
2023-04-18T23:07:46.652Z,11.80
2023-04-18T23:09:50.187Z,14.20
2023-04-18T23:11:53.956Z,15.30
2023-04-18T23:13:57.381Z,14.40
2023-04-18T23:16:04.823Z,13.80
2023-04-18T23:18:12.765Z,12.30
2023-04-18T23:20:19.980Z,12.70
2023-04-18T23:22:53.057Z,13.40
2023-04-18T23:25:02.950Z,13.80
2023-04-18T23:27:08.084Z,14.70
2023-04-18T23:29:20.757Z,12.70
2023-04-18T23:32:10.897Z,13.60
2023-04-18T23:34:15.012Z,12.50
2023-04-18T23:36:29.157Z,12.90
2023-04-18T23:38:41.253Z,14.10
2023-04-18T23:40:45.424Z,13.70
2023-04-18T23:42:48.929Z,13.60
2023-04-18T23:45:08.206Z,15.00
2023-04-18T23:47:12.884Z,13.50
2023-04-18T23:49:24.161Z,14.50
2023-04-18T23:51:27.863Z,12.70
2023-04-18T23:53:34.242Z,12.80
2023-04-18T23:55:38.617Z,12.10
2023-04-18T23:57:42.698Z,11.90
2023-04-18T23:59:57.935Z,11.30
